Time;durP1;ratioP1;P1;durP2;ratioP2;P2;SDS_P1;SDS_P2;PMS_P1;PMS_P2;Temp;Humidity;BMP_temperature;BMP_pressure;BME280_temperature;BME280_humidity;BME280_pressure;Samples;Min_cycle;Max_cycle;Signal;HPM_P1;HPM_P2
2024/02/10 00:00:21;;;;;;;20.17;7.75;;;;;;;7.40;100.00;93359.31;2091044;28;20064;-65
2024/02/10 00:01:24;;;;;;;16.30;7.10;;;;;;;7.39;100.00;93368.00;2090988;28;20053;-66
2024/02/10 00:02:26;;;;;;;17.80;7.28;;;;;;;7.35;100.00;93366.56;2090129;28;20057;-66
2024/02/10 00:03:30;;;;;;;21.30;7.85;;;;;;;7.38;100.00;93376.69;2090503;28;20052;-66
2024/02/10 00:04:31;;;;;;;18.65;8.45;;;;;;;7.36;100.00;93376.81;2090509;28;20484;-66
2024/02/10 00:05:32;;;;;;;18.20;7.63;;;;;;;7.39;100.00;93378.31;2090476;28;20041;-66
2024/02/10 00:06:36;;;;;;;18.90;7.20;;;;;;;7.40;100.00;93383.34;2089675;28;20053;-66
2024/02/10 00:07:37;;;;;;;20.88;7.65;;;;;;;7.42;100.00;93386.66;2089794;28;20041;-66
2024/02/10 00:08:39;;;;;;;22.83;8.38;;;;;;;7.42;100.00;93384.06;2090201;28;20044;-66
2024/02/10 00:09:41;;;;;;;21.65;8.55;;;;;;;7.42;100.00;93384.06;2090466;28;20051;-66
2024/02/10 00:10:42;;;;;;;15.90;7.30;;;;;;;7.37;100.00;93387.94;2090418;28;20044;-65
2024/02/10 00:11:43;;;;;;;19.23;7.70;;;;;;;7.39;100.00;93386.88;2089767;28;20413;-66
2024/02/10 00:12:45;;;;;;;21.35;8.85;;;;;;;7.35;100.00;93388.06;2089194;28;20099;-66
2024/02/10 00:13:47;;;;;;;21.65;7.97;;;;;;;7.33;100.00;93397.69;2090497;28;20060;-66
2024/02/10 00:14:48;;;;;;;20.40;6.97;;;;;;;7.31;100.00;93391.00;2090545;28;20397;-66
2024/02/10 00:15:50;;;;;;;20.08;7.22;;;;;;;7.28;100.00;93398.03;2090602;28;20488;-66
2024/02/10 00:16:51;;;;;;;20.70;7.03;;;;;;;7.23;100.00;93392.41;2090376;28;20409;-66
2024/02/10 00:17:52;;;;;;;16.88;8.05;;;;;;;7.21;100.00;93378.78;2090066;28;20053;-66
2024/02/10 00:18:53;;;;;;;21.95;8.00;;;;;;;7.21;100.00;93380.53;2090433;28;20041;-67
2024/02/10 00:19:55;;;;;;;21.92;7.20;;;;;;;7.14;100.00;93385.34;2090432;28;20056;-65
2024/02/10 00:20:56;;;;;;;15.90;6.88;;;;;;;7.05;100.00;93375.72;2090325;28;20037;-66
2024/02/10 00:21:57;;;;;;;18.80;7.10;;;;;;;6.98;100.00;93367.63;2090630;28;20045;-66
2024/02/10 00:22:58;;;;;;;15.00;7.18;;;;;;;7.01;100.00;93369.16;2090536;28;20404;-66
2024/02/10 00:23:59;;;;;;;13.48;7.20;;;;;;;7.08;100.00;93367.72;2090768;28;20045;-66
2024/02/10 00:25:00;;;;;;;22.27;7.70;;;;;;;7.12;100.00;93369.16;2090472;28;20045;-66
2024/02/10 00:26:03;;;;;;;23.08;7.60;;;;;;;7.11;100.00;93371.84;2090376;28;20357;-66
2024/02/10 00:27:04;;;;;;;21.38;8.32;;;;;;;7.11;100.00;93367.53;2090421;28;20485;-66
2024/02/10 00:28:06;;;;;;;22.33;7.93;;;;;;;7.05;100.00;93362.81;2090019;28;20037;-66
2024/02/10 00:29:10;;;;;;;16.63;6.90;;;;;;;7.05;100.00;93363.63;2089972;28;20048;-66
2024/02/10 00:30:16;;;;;;;17.67;7.50;;;;;;;7.09;100.00;93369.38;2090685;28;20045;-66
2024/02/10 00:31:17;;;;;;;19.85;7.97;;;;;;;7.09;100.00;93369.38;2090240;28;20401;-66
2024/02/10 00:32:19;;;;;;;17.50;8.13;;;;;;;7.10;100.00;93371.03;2090059;28;20061;-65
2024/02/10 00:33:20;;;;;;;16.20;8.25;;;;;;;7.06;100.00;93367.03;2089817;28;20049;-66
2024/02/10 00:34:23;;;;;;;19.08;7.30;;;;;;;7.04;100.00;93356.81;2090171;28;20041;-66
2024/02/10 00:35:24;;;;;;;17.02;9.00;;;;;;;7.11;100.00;93374.41;2090185;28;20067;-66
2024/02/10 00:36:25;;;;;;;14.02;7.47;;;;;;;7.11;100.00;93371.84;2090310;28;20052;-66
2024/02/10 00:37:26;;;;;;;20.30;7.88;;;;;;;7.03;100.00;93373.25;2090731;28;20056;-66
2024/02/10 00:38:27;;;;;;;21.05;8.88;;;;;;;7.00;100.00;93375.22;2090227;28;20063;-66
2024/02/10 00:39:28;;;;;;;20.75;8.57;;;;;;;7.03;100.00;93359.50;2090019;28;20048;-66
2024/02/10 00:40:31;;;;;;;17.83;8.55;;;;;;;6.94;100.00;93363.59;2090717;28;20060;-67
2024/02/10 00:41:32;;;;;;;19.70;7.43;;;;;;;6.96;100.00;93358.34;2090206;28;20049;-66
2024/02/10 00:42:33;;;;;;;19.33;8.25;;;;;;;6.99;100.00;93364.09;2090753;28;20048;-66
2024/02/10 00:43:37;;;;;;;21.38;8.15;;;;;;;7.02;100.00;93368.19;2090125;28;20046;-66
2024/02/10 00:44:38;;;;;;;23.15;7.85;;;;;;;6.99;100.00;93361.50;2090233;28;20086;-66
2024/02/10 00:45:40;;;;;;;24.10;7.85;;;;;;;6.99;100.00;93352.94;2090143;28;20378;-66
2024/02/10 00:46:41;;;;;;;19.13;7.65;;;;;;;6.97;100.00;93349.66;2090108;28;20041;-65
2024/02/10 00:47:44;;;;;;;19.02;7.65;;;;;;;6.92;100.00;93350.00;2089539;28;20044;-65
2024/02/10 00:48:47;;;;;;;28.08;9.32;;;;;;;6.83;100.00;93348.94;2090175;28;20512;-65
2024/02/10 00:49:48;;;;;;;15.27;7.53;;;;;;;6.82;100.00;93349.06;2089905;28;20056;-66
2024/02/10 00:50:49;;;;;;;20.40;6.93;;;;;;;6.87;100.00;93346.13;2089554;28;20041;-65
2024/02/10 00:51:52;;;;;;;19.27;7.47;;;;;;;6.87;100.00;93331.50;2089654;28;20048;-66
2024/02/10 00:52:53;;;;;;;20.08;7.75;;;;;;;6.85;100.00;93329.00;2090194;28;20049;-66
2024/02/10 00:53:54;;;;;;;29.25;7.68;;;;;;;6.86;100.00;93329.81;2090426;28;20465;-65
2024/02/10 00:54:56;;;;;;;17.50;7.13;;;;;;;6.82;100.00;93328.44;2090147;28;20037;-65
2024/02/10 00:55:57;;;;;;;19.20;8.25;;;;;;;6.87;100.00;93322.91;2089678;28;20048;-65
2024/02/10 00:56:58;;;;;;;16.67;7.68;;;;;;;6.88;100.00;93329.72;2090130;28;20393;-65
2024/02/10 00:58:04;;;;;;;21.00;8.93;;;;;;;6.87;100.00;93333.22;2090120;28;20025;-65
2024/02/10 00:59:05;;;;;;;23.00;8.60;;;;;;;6.87;100.00;93338.38;2090123;28;20048;-65
2024/02/10 01:00:11;;;;;;;13.70;8.02;;;;;;;6.87;100.00;93335.81;2090082;28;20044;-65
2024/02/10 01:01:20;;;;;;;17.00;6.95;;;;;;;6.84;100.00;93329.13;2090167;28;20041;-66
2024/02/10 01:02:21;;;;;;;15.07;7.65;;;;;;;6.81;100.00;93319.03;2089829;28;20053;-67
2024/02/10 01:03:23;;;;;;;13.65;7.35;;;;;;;6.84;100.00;93319.63;2090368;28;20138;-66
2024/02/10 01:04:27;;;;;;;21.42;8.15;;;;;;;6.83;100.00;93335.22;2090053;28;20481;-66
2024/02/10 01:05:29;;;;;;;20.83;8.75;;;;;;;6.80;100.00;93338.84;2090006;28;20072;-65
2024/02/10 01:06:30;;;;;;;18.35;8.35;;;;;;;6.82;100.00;93339.56;2090006;28;20060;-65
2024/02/10 01:07:33;;;;;;;16.98;7.88;;;;;;;6.83;100.00;93320.56;2090590;28;20404;-65
2024/02/10 01:08:35;;;;;;;19.35;7.45;;;;;;;6.84;100.00;93318.78;2089362;28;20049;-66
2024/02/10 01:09:40;;;;;;;20.75;8.57;;;;;;;6.83;100.00;93312.81;2090072;28;20053;-66
2024/02/10 01:10:41;;;;;;;17.92;8.23;;;;;;;6.84;100.00;93305.91;2090070;28;20045;-66
2024/02/10 01:11:43;;;;;;;19.52;7.53;;;;;;;6.83;100.00;93306.84;2090133;28;20044;-66
2024/02/10 01:12:44;;;;;;;21.35;7.85;;;;;;;6.81;100.00;93309.53;2089936;28;20041;-66
2024/02/10 01:13:45;;;;;;;17.38;8.02;;;;;;;6.80;100.00;93313.06;2090056;28;20481;-66
2024/02/10 01:14:47;;;;;;;18.85;7.07;;;;;;;6.82;100.00;93307.78;2090038;28;20075;-66
2024/02/10 01:15:54;;;;;;;20.05;7.50;;;;;;;6.83;100.00;93314.59;2090227;28;20049;-66
2024/02/10 01:16:57;;;;;;;16.85;7.78;;;;;;;6.84;100.00;93323.94;2090037;28;20045;-66
2024/02/10 01:18:02;;;;;;;19.02;7.57;;;;;;;6.82;100.00;93342.16;2090140;28;20063;-66
2024/02/10 01:19:06;;;;;;;17.05;8.60;;;;;;;6.83;100.00;93350.69;2090092;28;20041;-67
2024/02/10 01:20:08;;;;;;;24.45;7.80;;;;;;;6.85;100.00;93359.16;2089987;28;20049;-66
2024/02/10 01:21:10;;;;;;;16.67;7.57;;;;;;;6.84;100.00;93360.91;2090056;28;20040;-66
2024/02/10 01:22:16;;;;;;;22.98;8.15;;;;;;;6.76;100.00;93360.66;2090045;28;20052;-66
2024/02/10 01:23:17;;;;;;;19.85;7.15;;;;;;;6.70;100.00;93365.44;2090018;28;20037;-65
2024/02/10 01:24:20;;;;;;;14.45;6.90;;;;;;;6.64;100.00;93361.56;2090699;28;20060;-66
2024/02/10 01:25:21;;;;;;;20.38;7.03;;;;;;;6.61;100.00;93366.94;2090184;28;20057;-66
2024/02/10 01:26:22;;;;;;;21.50;7.30;;;;;;;6.59;100.00;93366.22;2089987;28;20052;-65
2024/02/10 01:27:26;;;;;;;20.75;8.65;;;;;;;6.55;100.00;93368.22;2090110;28;20052;-65
2024/02/10 01:28:27;;;;;;;22.85;8.40;;;;;;;6.55;100.00;93362.25;2089988;28;20400;-66
2024/02/10 01:29:28;;;;;;;20.05;8.60;;;;;;;6.53;100.00;93356.38;2090468;28;20041;-66
2024/02/10 01:30:29;;;;;;;23.80;8.27;;;;;;;6.52;100.00;93358.13;2090058;28;20041;-66
2024/02/10 01:31:31;;;;;;;18.45;8.48;;;;;;;6.49;100.00;93357.53;2089685;28;20405;-66
2024/02/10 01:32:32;;;;;;;15.80;7.78;;;;;;;6.48;100.00;93358.47;2089266;28;20063;-65
2024/02/10 01:33:34;;;;;;;18.88;8.38;;;;;;;6.48;100.00;93345.56;2089608;28;20054;-66
2024/02/10 01:34:35;;;;;;;18.25;8.75;;;;;;;6.45;100.00;93351.78;2089507;28;20048;-66
2024/02/10 01:35:36;;;;;;;18.08;7.72;;;;;;;6.39;100.00;93350.47;2090005;28;20076;-66
2024/02/10 01:36:37;;;;;;;23.02;8.15;;;;;;;6.37;100.00;93351.50;2089856;28;20052;-66
2024/02/10 01:37:38;;;;;;;16.73;8.93;;;;;;;6.34;100.00;93342.25;2089233;28;20052;-65
2024/02/10 01:38:42;;;;;;;22.90;9.13;;;;;;;6.30;100.00;93343.38;2088946;28;20487;-65
2024/02/10 01:39:47;;;;;;;20.77;9.05;;;;;;;6.28;100.00;93342.72;2090064;28;20053;-66
2024/02/10 01:40:50;;;;;;;20.67;9.07;;;;;;;6.29;100.00;93346.09;2089722;28;20476;-66
2024/02/10 01:41:52;;;;;;;19.80;9.50;;;;;;;6.25;100.00;93350.63;2089945;28;20512;-66
2024/02/10 01:42:53;;;;;;;21.15;8.77;;;;;;;6.25;100.00;93340.31;2090082;28;20037;-66
2024/02/10 01:43:54;;;;;;;23.80;9.98;;;;;;;6.19;100.00;93330.47;2089885;28;20481;-66
2024/02/10 01:44:58;;;;;;;21.45;10.63;;;;;;;6.14;100.00;93324.81;2090069;28;20041;-65
2024/02/10 01:45:59;;;;;;;18.13;9.63;;;;;;;6.12;100.00;93327.53;2091546;28;20037;-66
2024/02/10 01:47:01;;;;;;;23.10;8.73;;;;;;;6.10;100.00;93320.84;2091904;28;20049;-66
2024/02/10 01:48:08;;;;;;;18.40;8.32;;;;;;;6.10;100.00;93323.41;2091247;28;20056;-66
2024/02/10 01:49:09;;;;;;;24.23;8.65;;;;;;;6.10;100.00;93318.25;2090726;28;20048;-66
2024/02/10 01:50:11;;;;;;;17.77;8.57;;;;;;;6.10;100.00;93316.50;2083752;28;20049;-66
2024/02/10 01:51:12;;;;;;;21.63;9.77;;;;;;;6.10;100.00;93315.69;2090698;28;20496;-66
2024/02/10 01:52:13;;;;;;;24.75;9.60;;;;;;;6.11;100.00;93315.56;2090605;28;20037;-67
2024/02/10 01:53:14;;;;;;;22.65;8.77;;;;;;;6.08;100.00;93310.63;2090810;28;20040;-66
2024/02/10 01:54:15;;;;;;;18.02;8.90;;;;;;;6.05;100.00;93310.84;2090908;28;20049;-66
2024/02/10 01:55:17;;;;;;;21.85;8.88;;;;;;;6.04;100.00;93313.53;2090629;28;20060;-66
2024/02/10 01:56:18;;;;;;;17.73;7.75;;;;;;;6.04;100.00;93310.97;2090700;28;20055;-66
2024/02/10 01:57:20;;;;;;;17.08;8.38;;;;;;;6.07;100.00;93315.91;2091434;28;20044;-66
2024/02/10 01:58:22;;;;;;;18.55;9.93;;;;;;;6.11;100.00;93319.91;2090546;28;20049;-66
2024/02/10 01:59:23;;;;;;;20.58;9.73;;;;;;;6.13;100.00;93321.44;2090595;28;20053;-66
2024/02/10 02:00:25;;;;;;;24.25;9.80;;;;;;;6.13;100.00;93315.47;2091538;28;20049;-66
2024/02/10 02:01:26;;;;;;;19.23;8.93;;;;;;;6.13;100.00;93320.63;2090884;28;20048;-66
2024/02/10 02:02:31;;;;;;;19.85;9.45;;;;;;;6.14;100.00;93319.66;2082492;28;20471;-66
2024/02/10 02:03:32;;;;;;;22.27;9.10;;;;;;;6.11;100.00;93314.75;2090090;28;20492;-66
2024/02/10 02:04:36;;;;;;;23.00;10.18;;;;;;;6.08;100.00;93314.97;2091064;28;20036;-66
2024/02/10 02:05:39;;;;;;;18.98;8.85;;;;;;;6.04;100.00;93310.97;2091444;28;20075;-65
2024/02/10 02:06:40;;;;;;;23.38;9.48;;;;;;;6.04;100.00;93303.22;2090903;28;20427;-66
2024/02/10 02:07:41;;;;;;;19.73;9.52;;;;;;;6.04;100.00;93295.50;2082245;28;20045;-67
2024/02/10 02:08:43;;;;;;;22.35;9.63;;;;;;;6.06;100.00;93299.59;2091028;28;20041;-66
2024/02/10 02:09:44;;;;;;;24.85;10.00;;;;;;;6.08;100.00;93299.50;2091340;28;20041;-66
2024/02/10 02:10:45;;;;;;;19.55;9.35;;;;;;;6.10;100.00;93301.03;2091639;28;20409;-67
2024/02/10 02:11:48;;;;;;;19.20;9.07;;;;;;;6.09;100.00;93301.97;2091128;28;20049;-66
2024/02/10 02:12:50;;;;;;;23.45;10.55;;;;;;;6.08;100.00;93300.31;2091441;28;20049;-66
2024/02/10 02:13:51;;;;;;;20.80;8.95;;;;;;;6.09;100.00;93301.16;2091304;28;20088;-66
2024/02/10 02:14:54;;;;;;;19.70;10.80;;;;;;;6.06;100.00;93303.94;2091315;28;20032;-66
2024/02/10 02:15:58;;;;;;;15.52;8.55;;;;;;;6.06;100.00;93304.75;2091406;28;20059;-66
2024/02/10 02:16:59;;;;;;;20.58;9.30;;;;;;;6.07;100.00;93300.47;2091581;28;20049;-66
2024/02/10 02:18:00;;;;;;;20.13;9.90;;;;;;;6.08;100.00;93300.31;2091358;28;20044;-66
2024/02/10 02:19:02;;;;;;;21.42;9.77;;;;;;;6.11;100.00;93299.28;2091399;28;20059;-66
2024/02/10 02:20:07;;;;;;;21.63;10.15;;;;;;;6.13;100.00;93300.81;2090693;28;20544;-66
2024/02/10 02:21:08;;;;;;;21.45;9.15;;;;;;;6.12;100.00;93306.91;2090834;28;20044;-66
2024/02/10 02:22:09;;;;;;;18.10;8.80;;;;;;;6.12;100.00;93300.91;2090392;28;20532;-66
2024/02/10 02:23:18;;;;;;;22.20;9.20;;;;;;;6.15;100.00;93304.13;2090657;28;20051;-66
2024/02/10 02:24:22;;;;;;;21.35;9.82;;;;;;;6.16;100.00;93304.94;2091417;28;20067;-66
2024/02/10 02:25:23;;;;;;;21.98;10.13;;;;;;;6.17;100.00;93309.13;2091337;28;20080;-66
2024/02/10 02:26:24;;;;;;;23.02;9.82;;;;;;;6.21;100.00;93312.34;2091327;28;20037;-65
2024/02/10 02:27:25;;;;;;;20.15;8.93;;;;;;;6.20;100.00;93306.34;2091272;28;20037;-66
2024/02/10 02:28:27;;;;;;;21.02;9.48;;;;;;;6.19;100.00;93315.81;2091492;28;20037;-66
2024/02/10 02:29:28;;;;;;;17.95;9.40;;;;;;;6.21;100.00;93308.00;2091500;28;20040;-66
2024/02/10 02:30:29;;;;;;;19.88;9.88;;;;;;;6.21;100.00;93309.75;2091718;28;20045;-66
2024/02/10 02:31:30;;;;;;;19.83;9.10;;;;;;;6.18;100.00;93309.03;2091281;28;20044;-66
2024/02/10 02:32:34;;;;;;;24.02;9.45;;;;;;;6.16;100.00;93313.47;2091221;28;20049;-66
2024/02/10 02:33:36;;;;;;;19.55;9.25;;;;;;;6.13;100.00;93310.31;2091216;28;20053;-66
2024/02/10 02:34:37;;;;;;;17.67;9.48;;;;;;;6.09;100.00;93311.44;2091129;28;20397;-66
2024/02/10 02:35:38;;;;;;;21.08;9.35;;;;;;;6.04;100.00;93309.22;2091121;28;20053;-66
2024/02/10 02:36:39;;;;;;;19.90;10.80;;;;;;;6.06;100.00;93307.34;2091258;28;20044;-66
2024/02/10 02:37:41;;;;;;;24.58;10.05;;;;;;;6.03;100.00;93302.41;2090979;28;20049;-66
2024/02/10 02:38:43;;;;;;;22.13;9.85;;;;;;;6.02;100.00;93298.22;2091155;28;20048;-66
2024/02/10 02:39:44;;;;;;;24.38;10.07;;;;;;;6.02;100.00;93292.22;2090138;28;20056;-66
2024/02/10 02:40:45;;;;;;;26.10;10.43;;;;;;;6.01;100.00;93295.72;2090711;28;20049;-66
2024/02/10 02:41:47;;;;;;;23.25;9.25;;;;;;;5.98;100.00;93299.34;2091059;28;20485;-67
2024/02/10 02:42:48;;;;;;;26.90;10.13;;;;;;;5.97;100.00;93290.81;2091085;28;20056;-66
2024/02/10 02:43:49;;;;;;;23.02;9.77;;;;;;;5.98;100.00;93283.88;2091265;28;20049;-66
2024/02/10 02:44:51;;;;;;;26.02;10.90;;;;;;;5.91;100.00;93282.69;2090825;28;20048;-66
2024/02/10 02:45:52;;;;;;;24.60;9.70;;;;;;;5.87;100.00;93286.41;2090726;28;20052;-65
2024/02/10 02:46:54;;;;;;;19.52;9.40;;;;;;;5.83;100.00;93285.81;2090744;28;20089;-65
2024/02/10 02:48:01;;;;;;;18.40;8.88;;;;;;;5.87;100.00;93287.22;2090976;28;20060;-65
2024/02/10 02:49:02;;;;;;;19.55;9.32;;;;;;;5.94;100.00;93290.22;2091186;28;20473;-67
2024/02/10 02:50:04;;;;;;;18.67;9.30;;;;;;;5.98;100.00;93289.03;2091073;28;20045;-66
2024/02/10 02:51:05;;;;;;;23.08;9.38;;;;;;;6.01;100.00;93290.56;2091127;28;20045;-66
2024/02/10 02:52:07;;;;;;;21.75;10.50;;;;;;;5.96;100.00;93286.59;2091035;28;20033;-65
2024/02/10 02:53:08;;;;;;;21.40;9.60;;;;;;;5.94;100.00;93287.63;2090751;28;20436;-67
2024/02/10 02:54:10;;;;;;;17.90;9.32;;;;;;;5.93;100.00;93280.78;2091484;28;20048;-66
2024/02/10 02:55:12;;;;;;;21.42;8.77;;;;;;;5.89;100.00;93281.97;2091086;28;20127;-66
2024/02/10 02:56:18;;;;;;;25.08;9.32;;;;;;;5.86;100.00;93283.00;2090646;28;20052;-65
2024/02/10 02:57:19;;;;;;;22.10;8.80;;;;;;;5.86;100.00;93279.59;2090802;28;20060;-66
2024/02/10 02:58:20;;;;;;;19.67;9.85;;;;;;;5.84;100.00;93274.56;2091045;28;20060;-66
2024/02/10 02:59:21;;;;;;;20.33;9.57;;;;;;;5.88;100.00;93285.44;2091520;28;20052;-67
2024/02/10 03:00:22;;;;;;;19.90;8.93;;;;;;;5.80;100.00;93278.31;2091245;28;20063;-66
2024/02/10 03:01:23;;;;;;;27.52;9.77;;;;;;;5.77;100.00;93275.91;2091026;28;20057;-65
2024/02/10 03:02:25;;;;;;;19.58;9.25;;;;;;;5.79;100.00;93286.13;2090574;28;20060;-66
2024/02/10 03:03:26;;;;;;;25.25;10.38;;;;;;;5.79;100.00;93278.41;2091380;28;20044;-66
2024/02/10 03:04:28;;;;;;;19.08;8.35;;;;;;;5.78;100.00;93276.75;2092025;28;20056;-65
2024/02/10 03:05:31;;;;;;;20.95;8.68;;;;;;;5.77;100.00;93278.50;2090903;28;20444;-65
2024/02/10 03:06:32;;;;;;;18.95;9.38;;;;;;;5.68;100.00;93281.75;2090953;28;20511;-66
2024/02/10 03:07:33;;;;;;;22.63;9.70;;;;;;;5.70;100.00;93285.03;2091057;28;20044;-65
2024/02/10 03:08:35;;;;;;;22.58;9.18;;;;;;;5.67;100.00;93280.91;2090024;28;20049;-66
2024/02/10 03:09:36;;;;;;;20.35;10.43;;;;;;;5.69;100.00;93286.78;2090941;28;20049;-65
2024/02/10 03:10:37;;;;;;;23.08;10.77;;;;;;;5.68;100.00;93286.88;2090913;28;20048;-66
2024/02/10 03:11:38;;;;;;;22.73;10.48;;;;;;;5.66;100.00;93286.16;2090832;28;20068;-65
2024/02/10 03:12:41;;;;;;;22.25;9.93;;;;;;;5.64;100.00;93278.56;2090579;28;20399;-65
2024/02/10 03:13:46;;;;;;;27.52;11.25;;;;;;;5.66;100.00;93283.59;2090791;28;20060;-65
2024/02/10 03:14:47;;;;;;;23.48;11.05;;;;;;;5.65;100.00;93282.78;2090838;28;20052;-66
2024/02/10 03:15:48;;;;;;;23.88;11.60;;;;;;;5.61;100.00;93272.81;2090496;28;20071;-66
2024/02/10 03:16:49;;;;;;;23.52;11.23;;;;;;;5.59;100.00;93269.53;2091007;28;20044;-65
2024/02/10 03:17:50;;;;;;;24.58;11.35;;;;;;;5.55;100.00;93270.66;2091003;28;20041;-65
2024/02/10 03:18:51;;;;;;;25.95;11.02;;;;;;;5.50;100.00;93269.22;2090893;28;20041;-65
2024/02/10 03:19:52;;;;;;;25.38;11.75;;;;;;;5.52;100.00;93267.38;2090932;28;20040;-66
2024/02/10 03:20:54;;;;;;;23.48;12.10;;;;;;;5.55;100.00;93274.06;2090934;28;20056;-65
2024/02/10 03:22:00;;;;;;;26.42;12.50;;;;;;;5.55;100.00;93271.47;2090268;28;20492;-66
2024/02/10 03:23:02;;;;;;;22.60;11.68;;;;;;;5.52;100.00;93266.56;2090353;28;20044;-67
2024/02/10 03:24:03;;;;;;;22.98;11.93;;;;;;;5.50;100.00;93266.66;2091008;28;20068;-66
2024/02/10 03:25:04;;;;;;;28.98;12.35;;;;;;;5.49;100.00;93274.50;2090858;28;20041;-65
2024/02/10 03:26:05;;;;;;;23.42;11.05;;;;;;;5.46;100.00;93272.97;2090973;28;20120;-66
2024/02/10 03:27:07;;;;;;;27.17;12.15;;;;;;;5.49;100.00;93272.75;2090900;28;20049;-66
2024/02/10 03:28:08;;;;;;;20.35;11.63;;;;;;;5.50;100.00;93264.09;2090733;28;20481;-65
2024/02/10 03:29:09;;;;;;;26.00;12.70;;;;;;;5.52;100.00;93277.66;2090753;28;20025;-65
2024/02/10 03:30:15;;;;;;;27.20;12.70;;;;;;;5.52;100.00;93280.25;2090426;28;20053;-65
2024/02/10 03:31:16;;;;;;;23.15;10.85;;;;;;;5.51;100.00;93278.63;2090745;28;20516;-65
2024/02/10 03:32:17;;;;;;;26.48;11.93;;;;;;;5.50;100.00;93276.94;2090832;28;20036;-65
2024/02/10 03:33:18;;;;;;;30.77;12.57;;;;;;;5.51;100.00;93277.78;2090587;28;20060;-65
2024/02/10 03:34:19;;;;;;;25.83;13.02;;;;;;;5.51;100.00;93273.47;2090865;28;20080;-65
2024/02/10 03:35:21;;;;;;;23.95;11.68;;;;;;;5.51;100.00;93275.22;2090629;28;20048;-66
2024/02/10 03:36:24;;;;;;;26.15;11.23;;;;;;;5.49;100.00;93277.06;2089871;28;20049;-66
2024/02/10 03:37:28;;;;;;;28.80;12.90;;;;;;;5.47;100.00;93272.03;2090226;28;20048;-65
2024/02/10 03:38:30;;;;;;;22.95;11.00;;;;;;;5.45;100.00;93275.63;2090745;28;20051;-66
2024/02/10 03:39:32;;;;;;;31.13;12.75;;;;;;;5.48;100.00;93276.25;2090640;28;20053;-66
2024/02/10 03:40:33;;;;;;;21.98;11.88;;;;;;;5.48;100.00;93273.69;2090460;28;20060;-66
2024/02/10 03:41:34;;;;;;;27.17;11.63;;;;;;;5.51;100.00;93270.88;2090590;28;20048;-66
2024/02/10 03:42:36;;;;;;;25.55;12.15;;;;;;;5.48;100.00;93270.25;2090294;28;20052;-65
2024/02/10 03:43:37;;;;;;;30.08;11.90;;;;;;;5.45;100.00;93266.19;2090343;28;20049;-65
2024/02/10 03:44:38;;;;;;;29.00;12.05;;;;;;;5.41;100.00;93275.03;2090708;28;20049;-66
2024/02/10 03:45:39;;;;;;;26.42;13.00;;;;;;;5.45;100.00;93268.75;2090741;28;20049;-66
2024/02/10 03:46:40;;;;;;;25.92;12.68;;;;;;;5.42;100.00;93265.56;2090553;28;20041;-65
2024/02/10 03:47:44;;;;;;;25.08;12.13;;;;;;;5.35;100.00;93264.38;2090604;28;20052;-66
2024/02/10 03:48:46;;;;;;;23.15;12.60;;;;;;;5.34;100.00;93260.94;2090523;28;20504;-67
2024/02/10 03:49:47;;;;;;;23.83;11.63;;;;;;;5.34;100.00;93258.38;2090312;28;20059;-66
2024/02/10 03:50:48;;;;;;;26.48;12.82;;;;;;;5.36;100.00;93263.44;2090264;28;20500;-66
2024/02/10 03:51:49;;;;;;;22.58;12.15;;;;;;;5.37;100.00;93258.16;2090559;28;20044;-67
2024/02/10 03:52:50;;;;;;;22.10;11.93;;;;;;;5.42;100.00;93266.38;2090741;28;20052;-66
2024/02/10 03:53:51;;;;;;;22.95;12.57;;;;;;;5.44;100.00;93258.56;2090210;28;20040;-66
2024/02/10 03:54:53;;;;;;;26.80;12.30;;;;;;;5.43;100.00;93262.91;2090567;28;20080;-65
2024/02/10 03:55:56;;;;;;;23.35;13.50;;;;;;;5.44;100.00;93263.72;2089888;28;20052;-65
2024/02/10 03:56:57;;;;;;;27.58;13.18;;;;;;;5.43;100.00;93268.03;2089887;28;20044;-65
2024/02/10 03:57:59;;;;;;;30.05;13.20;;;;;;;5.42;100.00;93253.50;2090668;28;20409;-66
2024/02/10 03:59:02;;;;;;;25.15;13.02;;;;;;;5.41;100.00;93254.44;2090559;28;20045;-65
2024/02/10 04:00:08;;;;;;;26.60;11.98;;;;;;;5.40;100.00;93254.53;2090532;28;20044;-65
2024/02/10 04:01:16;;;;;;;23.70;12.95;;;;;;;5.35;100.00;93248.94;2090525;28;20052;-65
2024/02/10 04:02:18;;;;;;;23.63;12.98;;;;;;;5.36;100.00;93261.66;2090308;28;20063;-65
2024/02/10 04:03:20;;;;;;;24.23;12.40;;;;;;;5.35;100.00;93259.22;2090567;28;20045;-65
2024/02/10 04:04:22;;;;;;;23.75;12.35;;;;;;;5.29;100.00;93253.56;2090772;28;20382;-65
2024/02/10 04:05:27;;;;;;;22.38;11.20;;;;;;;5.24;100.00;93252.25;2090438;28;20049;-66
2024/02/10 04:06:29;;;;;;;28.15;12.88;;;;;;;5.24;100.00;93255.66;2090462;28;20063;-66
2024/02/10 04:07:31;;;;;;;23.60;13.45;;;;;;;5.23;100.00;93258.31;2090078;28;20037;-65
2024/02/10 04:08:34;;;;;;;25.25;13.52;;;;;;;5.27;100.00;93257.19;2089392;28;20037;-65
2024/02/10 04:09:35;;;;;;;28.38;14.00;;;;;;;5.28;100.00;93257.06;2090517;28;20406;-65
2024/02/10 04:10:37;;;;;;;23.88;12.70;;;;;;;5.25;100.00;93253.88;2090389;28;20036;-66
2024/02/10 04:11:38;;;;;;;23.70;12.20;;;;;;;5.24;100.00;93255.66;2090318;28;20048;-66
2024/02/10 04:12:39;;;;;;;27.88;12.30;;;;;;;5.21;100.00;93261.00;2090160;28;20053;-66
2024/02/10 04:13:41;;;;;;;31.38;12.48;;;;;;;5.20;100.00;93263.69;2090353;28;20040;-66
2024/02/10 04:14:42;;;;;;;24.00;12.38;;;;;;;5.22;100.00;93259.25;2090261;28;20644;-66
2024/02/10 04:15:43;;;;;;;30.52;14.02;;;;;;;5.21;100.00;93258.44;2090434;28;20053;-66
2024/02/10 04:16:46;;;;;;;25.92;13.20;;;;;;;5.22;100.00;93259.25;2090159;28;20045;-64
2024/02/10 04:17:55;;;;;;;25.85;13.95;;;;;;;5.22;100.00;93262.66;2090589;28;20057;-66
2024/02/10 04:18:59;;;;;;;;;;;;;;;5.22;100.00;93256.69;2091016;28;20404;-64
2024/02/10 04:20:01;;;;;;;28.30;12.70;;;;;;;5.21;100.00;93261.00;2090311;28;19913;-66
2024/02/10 04:21:04;;;;;;;27.73;13.68;;;;;;;5.20;100.00;93255.97;2090413;28;20047;-66
2024/02/10 04:22:06;;;;;;;27.27;12.82;;;;;;;5.18;100.00;93265.53;2090513;28;20049;-66
2024/02/10 04:23:11;;;;;;;26.08;13.07;;;;;;;5.17;100.00;93257.00;2090465;28;20053;-66
2024/02/10 04:24:17;;;;;;;23.15;12.73;;;;;;;5.18;100.00;93268.91;2090320;28;20420;-66
2024/02/10 04:25:18;;;;;;;23.27;12.93;;;;;;;5.20;100.00;93264.50;2090229;28;20049;-66
2024/02/10 04:26:19;;;;;;;24.15;12.48;;;;;;;5.22;100.00;93264.41;2090286;28;20048;-66
2024/02/10 04:27:20;;;;;;;32.78;14.25;;;;;;;5.24;100.00;93260.78;2090061;28;20049;-66
2024/02/10 04:28:22;;;;;;;28.85;13.32;;;;;;;5.25;100.00;93266.75;2089983;28;20057;-64
2024/02/10 04:29:23;;;;;;;25.50;13.23;;;;;;;5.27;100.00;93267.47;2090457;28;20064;-66
2024/02/10 04:30:25;;;;;;;24.85;13.93;;;;;;;5.25;100.00;93261.59;2090431;28;20032;-67
2024/02/10 04:31:26;;;;;;;25.40;13.00;;;;;;;5.26;100.00;93273.53;2090549;28;20400;-66
2024/02/10 04:32:27;;;;;;;29.25;13.35;;;;;;;5.27;100.00;93268.28;2090626;28;20060;-67
2024/02/10 04:33:28;;;;;;;26.80;13.82;;;;;;;5.26;100.00;93265.81;2090562;28;20037;-66
2024/02/10 04:34:31;;;;;;;25.05;13.00;;;;;;;5.28;100.00;93269.09;2090334;28;20040;-66
2024/02/10 04:35:32;;;;;;;26.25;14.52;;;;;;;5.27;100.00;93264.91;2089619;28;20045;-64
2024/02/10 04:36:34;;;;;;;26.42;13.32;;;;;;;5.25;100.00;93266.75;2089439;28;20045;-64
2024/02/10 04:37:36;;;;;;;29.33;14.23;;;;;;;5.25;100.00;93269.31;2090561;28;20057;-64
2024/02/10 04:38:37;;;;;;;29.33;14.10;;;;;;;5.25;100.00;93274.47;2090622;28;20049;-64
2024/02/10 04:39:38;;;;;;;30.27;13.55;;;;;;;5.24;100.00;93271.09;2089865;28;20045;-64
2024/02/10 04:40:39;;;;;;;26.40;13.95;;;;;;;5.22;100.00;93269.53;2090531;28;20045;-65
2024/02/10 04:41:40;;;;;;;29.50;14.40;;;;;;;5.15;100.00;93274.28;2090167;28;20076;-66
2024/02/10 04:42:41;;;;;;;28.02;14.43;;;;;;;5.18;100.00;93268.09;2089817;28;20045;-66
2024/02/10 04:43:42;;;;;;;29.52;14.50;;;;;;;5.20;100.00;93276.53;2081689;28;20529;-66
2024/02/10 04:44:49;;;;;;;27.20;14.38;;;;;;;5.14;100.00;93282.13;2089899;28;20199;-64
2024/02/10 04:45:50;;;;;;;27.50;13.18;;;;;;;5.15;100.00;93276.84;2090144;28;20045;-66
2024/02/10 04:46:51;;;;;;;26.15;14.43;;;;;;;5.14;100.00;93271.84;2089833;28;20052;-65